Academy, SD

3:27 PM CDT on October 01, 2014 (GMT -0500)
Winner | Change Station
CLOSE
Current Station
Airport
Location: Winner,
Elevation: 2031 ft
Nearby Weather Stations

Elev 2031 ft 43.39 °N, 99.84 °W | Updated 34 minutes ago

Partly Cloudy
Partly Cloudy
72 °F
Feels Like 72 °F
N
30
Wind Variable Wind from SW
Gusts 41 mph

Today
High -- | Low -- °F
--% Chance of Precip.
Yesterday
High -- | Low -- °F
Precip. -- in
7:33 AM 7:16 PM
Waxing Crescent, 51% visible
Pressure 29.51 in
Visibility 10.0 miles
Clouds Overcast 6000 ft
Dew Point 45 °F
Humidity 38%
Rainfall 0.00 in
Snow Depth 0 in , 1 in
UV 2 out of 12
Pollen 4.30 out of 12
Air Quality Not available.
Flu Activity Not available.
METAR KICR 301953Z AUTO 22026G36KT 10SM OVC060 22/07 A2955 RMK AO2 PK WND 21036/1944 SLP993 T02220072

More Conditions Fewer Conditions

Pressure 29.51 in
Visibility 10.0 miles
Clouds Overcast 6000 ft
Dew Point 45 °F
Humidity 38%
Rainfall 0.00 in
Snow Depth 0 in , 1 in
UV 2 out of 12
Pollen 4.30 out of 12
Air Quality Not available.
Flu Activity Not available.
METAR KICR 301953Z AUTO 22026G36KT 10SM OVC060 22/07 A2955 RMK AO2 PK WND 21036/1944 SLP993 T02220072

More Conditions Fewer Conditions

10-Day Weather Forecast

Almanac

Astronomy

Oct. 01, 2014 Rise Set
Actual Time 7:33 AM CDT 7:16 PM CDT
Civil Twilight 7:04 AM CDT 7:44 PM CDT
Nautical Twilight 6:31 AM CDT 8:18 PM CDT
Astronomical Twilight 5:57 AM CDT 8:51 PM CDT
Moon 2:42 PM CDT No Moon Set
Length of Visible Light 12h 40m
Length of Day
11h 43m
Tomorrow will be 2m 56s shorter.
Waxing Crescent, 51% of the Moon is Illuminated
Today
Waxing Crescent
Oct 8
Full
Oct 15
Last Quarter
Oct 23
New
Oct 30
First Quarter

Today's Extremes

State Highs State Lows

Community

WunderPhotos

Upload Photos

1,758,030 photos uploaded!

WunderBlogs® & News

By Dr. Jeff Masters
Director of Meteorology, Weather Underground
By Kari Strenfel
Meteorologist, Weather Underground
By Christopher C. Burt
Weather Historian, Weather Underground
October 1, 2014
October 1, 2014
October 1, 2014

Nearby

Snow Depth

Station Depth Elevation
North Rapid Creek 0 in 6130 ft
Blind Park 1 in 6890 ft

Earthquake Activity

City Distance Mag. Time & Date
No recent earthquake activity has been reported nearby.
Minimum magnitude displayed is 2.5.

Coastal Water Temperatures

Place Temperature
No Stations Reporting

Nearby Weather Stations